Time;durP1;ratioP1;P1;durP2;ratioP2;P2;SDS_P1;SDS_P2;PMS_P1;PMS_P2;Temp;Humidity;BMP_temperature;BMP_pressure;BME280_temperature;BME280_humidity;BME280_pressure;Samples;Min_cycle;Max_cycle;Signal;HPM_P1;HPM_P2
2023/01/03 00:01:52;;;;;;;;;33.00;30.00;;;;;9.98;73.51;102235.63;5039887;28;45806;-73
2023/01/03 00:04:17;;;;;;;;;31.33;27.00;;;;;9.89;73.47;102225.66;5041222;28;45610;-77
2023/01/03 00:06:46;;;;;;;;;30.33;27.67;;;;;10.03;73.25;102245.97;5057812;28;45533;-73
2023/01/03 00:09:14;;;;;;;;;28.33;28.00;;;;;10.05;73.19;102236.94;5040456;28;45425;-73
2023/01/03 00:14:27;;;;;;;;;21.33;19.00;;;;;9.84;73.66;102221.63;5059887;28;45225;-74
2023/01/03 00:16:55;;;;;;;;;12.00;10.33;;;;;9.96;73.35;102248.19;5058508;28;46683;-74
2023/01/03 00:19:23;;;;;;;;;17.00;17.00;;;;;9.91;73.48;102242.34;5058591;28;45601;-74
2023/01/03 00:21:48;;;;;;;;;23.67;21.00;;;;;9.72;73.81;102208.19;5044720;28;45296;-75
2023/01/03 00:24:14;;;;;;;;;18.33;17.00;;;;;9.88;73.72;102239.88;5078179;28;45524;-75
2023/01/03 00:26:40;;;;;;;;;19.33;17.00;;;;;9.92;73.67;102244.03;5078481;28;46439;-75
2023/01/03 00:29:06;;;;;;;;;15.67;14.33;;;;;9.88;73.89;102234.56;5078393;28;45487;-73
2023/01/03 00:31:32;;;;;;;;;17.33;14.67;;;;;9.95;73.84;102242.97;5060453;28;45454;-75
2023/01/03 00:33:58;;;;;;;;;16.67;13.00;;;;;9.38;73.37;102159.13;5078829;28;45342;-74
2023/01/03 00:36:23;;;;;;;;;18.67;17.00;;;;;9.76;73.91;102230.91;5078642;28;46042;-74
2023/01/03 00:38:49;;;;;;;;;14.67;14.00;;;;;9.79;73.80;102243.16;5078756;28;45257;-73
2023/01/03 00:41:16;;;;;;;;;18.67;17.33;;;;;9.73;73.86;102231.13;5059715;28;45520;-74
2023/01/03 00:43:44;;;;;;;;;17.00;16.33;;;;;8.71;74.12;102053.94;5079263;28;45308;-75
2023/01/03 00:46:12;;;;;;;;;20.33;18.00;;;;;8.61;74.13;102045.75;5077348;28;45580;-74
2023/01/03 00:48:37;;;;;;;;;18.33;18.00;;;;;9.68;74.21;102232.41;5074680;28;45316;-73
2023/01/03 00:51:08;;;;;;;;;20.00;17.00;;;;;8.99;74.56;102135.19;5057226;28;45340;-77
2023/01/03 00:53:34;;;;;;;;;20.33;17.67;;;;;9.68;74.19;102235.91;5058815;28;45402;-74
2023/01/03 00:56:09;;;;;;;;;19.67;18.00;;;;;8.78;74.20;102076.44;5057998;28;46247;-74
2023/01/03 00:58:35;;;;;;;;;21.00;17.67;;;;;9.68;74.30;102229.75;5040399;28;45731;-75
2023/01/03 01:01:12;;;;;;;;;15.33;14.33;;;;;8.53;74.14;102053.34;5057676;28;45640;-73
2023/01/03 01:03:40;;;;;;;;;20.33;17.33;;;;;9.14;74.20;102166.91;5057894;28;45221;-73
2023/01/03 01:06:26;;;;;;;;;20.33;18.33;;;;;9.59;74.48;102248.91;5039411;28;47129;-76
2023/01/03 01:08:55;;;;;;;;;16.33;16.33;;;;;9.51;74.21;102230.84;5039447;28;45345;-75
2023/01/03 01:11:21;;;;;;;;;15.00;15.00;;;;;9.51;74.57;102237.97;5057736;28;45388;-74
2023/01/03 01:13:47;;;;;;;;;19.00;16.33;;;;;9.26;74.52;102206.88;5056371;28;45340;-73
2023/01/03 01:16:16;;;;;;;;;16.67;16.00;;;;;9.50;74.61;102238.91;5068547;28;46035;-72
2023/01/03 01:18:43;;;;;;;;;18.00;15.67;;;;;9.45;74.51;102226.81;5077803;27;45302;-75
2023/01/03 01:21:23;;;;;;;;;26.00;15.67;;;;;9.13;74.63;102180.28;5082721;27;45347;-74
2023/01/03 01:23:48;;;;;;;;;16.00;16.00;;;;;9.42;74.50;102227.00;5097120;27;45264;-73
2023/01/03 01:26:16;;;;;;;;;18.33;17.33;;;;;9.30;74.38;102205.72;5097870;27;45647;-75
2023/01/03 01:28:42;;;;;;;;;17.67;17.00;;;;;9.26;74.24;102189.16;5099521;27;45288;-74
2023/01/03 01:31:12;;;;;;;;;17.00;15.67;;;;;9.53;74.45;102241.38;5100300;27;45199;-73
2023/01/03 01:33:37;;;;;;;;;17.00;17.00;;;;;9.34;74.00;102221.34;5098471;27;45476;-75
2023/01/03 01:36:24;;;;;;;;;17.33;16.00;;;;;9.54;74.01;102245.72;5097936;27;45819;-72
2023/01/03 01:39:02;;;;;;;;;14.00;14.00;;;;;9.00;74.53;102160.78;5096720;27;46237;-74
2023/01/03 01:44:56;;;;;;;;;16.33;15.67;;;;;9.53;73.88;102246.69;5077698;28;45484;-75
2023/01/03 01:47:37;;;;;;;;;16.33;15.00;;;;;9.57;73.57;102246.38;5037658;28;48848;-73
2023/01/03 01:50:06;;;;;;;;;13.67;13.67;;;;;9.56;73.94;102252.63;5067377;28;45557;-73
2023/01/03 01:52:34;;;;;;;;;17.33;16.33;;;;;9.59;73.94;102248.91;5088831;27;45661;-74
2023/01/03 01:55:03;;;;;;;;;15.00;14.67;;;;;8.76;74.30;102121.63;5098508;27;45303;-74
2023/01/03 01:57:29;;;;;;;;;13.33;12.67;;;;;8.84;73.71;102135.28;5097132;27;45324;-75
2023/01/03 01:59:55;;;;;;;;;15.67;13.33;;;;;8.53;74.15;102090.44;5097849;27;45296;-73
2023/01/03 02:02:21;;;;;;;;;14.33;13.33;;;;;9.56;73.92;102265.06;5083085;27;45529;-72
2023/01/03 02:04:51;;;;;;;;;15.33;12.67;;;;;9.45;74.24;102248.03;5077516;27;45466;-74
2023/01/03 02:07:18;;;;;;;;;17.00;13.67;;;;;9.53;74.00;102270.56;5076926;27;46965;-74
2023/01/03 02:09:45;;;;;;;;;16.00;14.67;;;;;9.10;73.94;102196.38;5075751;28;45408;-72
2023/01/03 02:15:17;;;;;;;;;13.67;13.00;;;;;8.98;74.46;102179.44;5070371;28;45247;-73
2023/01/03 02:18:04;;;;;;;;;12.00;11.67;;;;;9.52;74.58;102263.56;5038434;28;48900;-74
2023/01/03 02:20:57;;;;;;;;;14.00;12.67;;;;;9.47;74.36;102271.84;5056742;28;45349;-74
2023/01/03 02:23:53;;;;;;;;;11.00;11.00;;;;;9.49;73.88;102280.53;5056897;28;45557;-74
2023/01/03 02:26:18;;;;;;;;;14.33;13.00;;;;;9.49;74.14;102266.41;5061467;28;45372;-75
2023/01/03 02:28:50;;;;;;;;;11.67;11.67;;;;;9.45;74.49;102265.78;5060154;28;45589;-73
2023/01/03 02:31:41;;;;;;;;;9.67;8.00;;;;;9.44;74.92;102270.22;5060003;28;45391;-74
2023/01/03 02:34:29;;;;;;;;;13.00;11.00;;;;;9.46;74.34;102278.09;5041959;28;45510;-73
2023/01/03 02:37:00;;;;;;;;;7.00;7.00;;;;;9.12;74.69;102224.53;5042074;28;45552;-73
2023/01/03 02:39:28;;;;;;;;;15.67;11.33;;;;;9.44;74.55;102272.88;5059772;28;46400;-71
2023/01/03 02:45:19;;;;;;;;;13.00;13.00;;;;;9.49;74.74;102279.69;5060076;28;45328;-72
2023/01/03 02:48:00;;;;;;;;;10.00;9.33;;;;;8.76;74.29;102174.66;5030975;28;47124;-74
2023/01/03 02:50:29;;;;;;;;;11.00;8.67;;;;;8.98;74.21;102189.22;5041380;28;47689;-72
2023/01/03 02:53:01;;;;;;;;;9.00;8.67;;;;;9.50;74.54;102292.88;5058446;28;45274;-72
2023/01/03 02:55:31;;;;;;;;;12.00;12.00;;;;;8.98;74.08;102181.25;5058427;28;45211;-74
2023/01/03 02:58:14;;;;;;;;;12.33;10.00;;;;;9.52;74.50;102277.69;5041595;28;45332;-74
2023/01/03 03:00:47;;;;;;;;;12.67;8.00;;;;;8.31;74.40;102098.03;5041502;28;48280;-73
2023/01/03 03:03:18;;;;;;;;;10.33;8.67;;;;;9.43;75.09;102279.16;5058497;28;45384;-73
2023/01/03 03:05:54;;;;;;;;;12.33;9.33;;;;;9.43;74.48;102271.19;5059367;28;45482;-74
2023/01/03 03:08:19;;;;;;;;;5.67;5.67;;;;;9.48;74.72;102281.50;5060373;28;45315;-76
2023/01/03 03:13:38;;;;;;;;;8.67;8.00;;;;;9.52;74.35;102274.19;5059506;28;45364;-73
2023/01/03 03:16:10;;;;;;;;;9.00;9.00;;;;;9.52;74.34;102284.81;5058993;28;45359;-73
2023/01/03 03:18:59;;;;;;;;;7.67;7.00;;;;;9.05;74.38;102191.38;5059617;28;45507;-74
2023/01/03 03:30:02;;;;;;;;;8.00;6.33;;;;;9.15;74.64;102218.16;5059453;28;45328;-73
2023/01/03 03:32:31;;;;;;;;;8.67;7.00;;;;;9.43;74.91;102286.25;5051270;28;47263;-73
2023/01/03 03:35:01;;;;;;;;;7.00;5.67;;;;;9.49;74.86;102291.16;5079503;28;45331;-73
2023/01/03 03:37:28;;;;;;;;;6.33;6.33;;;;;8.04;74.60;102031.75;5078982;28;45289;-73
2023/01/03 03:45:50;;;;;;;;;5.67;5.67;;;;;8.95;74.76;102192.06;5079315;28;45414;-73
2023/01/03 03:48:24;;;;;;;;;8.00;6.33;;;;;9.51;74.81;102277.78;5079284;28;45426;-74
2023/01/03 03:50:56;;;;;;;;;7.33;7.33;;;;;9.22;74.83;102243.38;5079295;28;45459;-71
2023/01/03 03:53:27;;;;;;;;;12.33;7.00;;;;;9.46;75.10;102280.75;5078910;28;45418;-75
2023/01/03 03:56:04;;;;;;;;;7.00;7.00;;;;;9.30;75.35;102254.34;5079445;28;45237;-75
2023/01/03 03:58:39;;;;;;;;;6.33;6.00;;;;;9.22;75.29;102250.47;5080201;28;45210;-73
2023/01/03 04:01:07;;;;;;;;;8.00;7.00;;;;;8.92;75.52;102205.53;5080809;28;45484;-73
2023/01/03 04:03:35;;;;;;;;;6.33;6.33;;;;;9.35;75.29;102260.19;5078854;28;45630;-72
2023/01/03 04:06:07;;;;;;;;;5.33;5.00;;;;;8.78;74.51;102140.94;5079093;28;45316;-72
2023/01/03 04:08:33;;;;;;;;;8.67;7.00;;;;;9.68;74.26;102291.69;5064966;28;45612;-74
2023/01/03 04:11:04;;;;;;;;;7.33;6.67;;;;;9.65;74.97;102277.75;5059087;28;45242;-73
2023/01/03 04:13:34;;;;;;;;;9.00;8.00;;;;;9.15;74.79;102188.97;5058507;28;45655;-75
2023/01/03 04:16:00;;;;;;;;;7.00;7.00;;;;;8.99;75.20;102175.00;5058230;28;45494;-75
2023/01/03 04:18:26;;;;;;;;;9.00;5.67;;;;;9.64;75.31;102290.19;5040832;28;45509;-72
2023/01/03 04:20:51;;;;;;;;;9.00;7.00;;;;;9.33;75.03;102216.13;5062943;28;45632;-73
2023/01/03 04:23:16;;;;;;;;;6.33;6.33;;;;;9.14;75.35;102201.41;5058484;28;45419;-73
2023/01/03 04:25:42;;;;;;;;;7.67;5.00;;;;;8.49;75.02;102087.16;5043481;28;47339;-74
2023/01/03 04:28:07;;;;;;;;;8.33;7.67;;;;;9.79;75.15;102287.44;5060308;28;45348;-75
2023/01/03 04:30:33;;;;;;;;;7.33;6.33;;;;;9.87;74.76;102295.78;5060591;28;45313;-73
2023/01/03 04:33:03;;;;;;;;;5.00;3.67;;;;;9.79;74.66;102290.94;5078548;28;45528;-74
2023/01/03 04:35:28;;;;;;;;;9.67;6.67;;;;;9.75;74.73;102270.88;5044022;28;45570;-73
2023/01/03 04:37:54;;;;;;;;;9.00;7.33;;;;;9.49;74.79;102219.50;5058315;28;45584;-74
2023/01/03 04:40:19;;;;;;;;;5.67;5.67;;;;;9.75;74.25;102250.47;5040308;28;45505;-74
2023/01/03 04:45:36;;;;;;;;;9.67;9.67;;;;;9.51;73.92;102203.44;5019033;28;45329;-74
2023/01/03 04:48:02;;;;;;;;;7.00;7.00;;;;;9.94;74.01;102266.03;5057716;28;45330;-73
2023/01/03 04:50:28;;;;;;;;;12.33;6.67;;;;;10.21;73.54;102320.97;5058163;28;45539;-72
2023/01/03 04:52:53;;;;;;;;;7.00;7.00;;;;;10.13;73.98;102302.84;5058242;28;45719;-75
2023/01/03 04:55:19;;;;;;;;;6.00;5.00;;;;;9.73;73.44;102236.44;5058621;28;45246;-73
2023/01/03 04:57:44;;;;;;;;;20.33;20.00;;;;;9.17;73.82;102144.63;5057333;28;45205;-72
2023/01/03 05:00:10;;;;;;;;;7.33;7.33;;;;;10.19;73.92;102329.00;5057888;28;45372;-75
2023/01/03 05:02:36;;;;;;;;;8.00;7.00;;;;;10.01;73.78;102291.25;5057751;28;45671;-73
2023/01/03 05:05:01;;;;;;;;;5.67;5.67;;;;;10.21;73.45;102321.84;5057530;28;45204;-74
2023/01/03 05:07:27;;;;;;;;;7.00;5.67;;;;;9.66;73.08;102218.38;5057511;28;46382;-74
2023/01/03 05:09:53;;;;;;;;;6.67;6.67;;;;;10.32;72.90;102321.09;5057832;28;45265;-73
2023/01/03 05:12:18;;;;;;;;;7.00;7.00;;;;;10.28;72.39;102309.84;5057827;28;45531;-73
2023/01/03 05:14:43;;;;;;;;;8.00;7.00;;;;;10.42;72.63;102329.31;5061009;27;45288;-74
2023/01/03 05:17:09;;;;;;;;;6.00;6.00;;;;;10.13;72.36;102259.47;5079500;28;45238;-75
2023/01/03 05:25:48;;;;;;;;;5.67;5.67;;;;;10.14;71.91;102285.09;5079304;28;45583;-74
2023/01/03 05:27:48;;;;;;;;;7.33;6.00;;;;;9.55;73.11;102235.00;5077593;28;45296;-72
2023/01/03 05:30:13;;;;;;;;;6.00;6.00;;;;;9.21;72.90;102170.03;5077962;28;45352;-74
2023/01/03 05:32:38;;;;;;;;;5.67;5.67;;;;;10.09;73.10;102337.72;5092744;27;47955;-74
2023/01/03 05:35:04;;;;;;;;;6.00;5.00;;;;;9.46;72.67;102230.31;5077349;28;45479;-73
2023/01/03 05:37:29;;;;;;;;;7.00;7.00;;;;;9.63;72.92;102246.00;5077363;28;45519;-73
2023/01/03 05:39:55;;;;;;;;;8.67;7.67;;;;;10.08;73.18;102323.56;5077600;27;45273;-72
2023/01/03 05:42:20;;;;;;;;;8.33;8.33;;;;;10.12;72.70;102322.41;5077430;27;46245;-73
2023/01/03 05:44:45;;;;;;;;;10.00;9.00;;;;;10.22;72.67;102333.31;5077281;28;45481;-75
2023/01/03 05:47:11;;;;;;;;;6.00;6.00;;;;;10.14;72.82;102319.66;5077592;28;45894;-72
2023/01/03 05:49:36;;;;;;;;;8.67;8.00;;;;;9.61;72.71;102239.03;5077683;27;45259;-74
2023/01/03 05:52:02;;;;;;;;;7.00;7.00;;;;;9.05;72.51;102146.28;5077163;27;46372;-74
2023/01/03 05:54:27;;;;;;;;;9.67;8.00;;;;;9.59;72.58;102252.44;5089230;27;45541;-74
2023/01/03 05:56:52;;;;;;;;;9.00;7.67;;;;;10.07;72.76;102329.84;5097813;27;45295;-72
2023/01/03 05:59:18;;;;;;;;;14.33;11.67;;;;;9.12;73.29;102198.00;5097915;27;45368;-73
2023/01/03 06:01:43;;;;;;;;;11.67;8.67;;;;;9.52;73.49;102282.16;5101439;27;46501;-73
2023/01/03 06:04:08;;;;;;;;;11.00;9.67;;;;;8.94;73.50;102172.66;5101005;27;50654;-74
2023/01/03 06:06:34;;;;;;;;;14.33;9.67;;;;;9.74;73.67;102295.72;5101384;27;45552;-74
2023/01/03 06:08:59;;;;;;;;;9.00;8.67;;;;;9.41;73.69;102251.84;5117002;27;45295;-74
2023/01/03 06:11:24;;;;;;;;;8.00;6.67;;;;;8.83;73.96;102186.59;5100459;27;47174;-74
2023/01/03 06:13:50;;;;;;;;;12.33;8.33;;;;;9.00;74.52;102220.00;5101361;27;45310;-73
2023/01/03 06:19:02;;;;;;;;;6.67;5.33;;;;;9.34;74.59;102308.06;5101482;27;45302;-73
2023/01/03 06:21:28;;;;;;;;;8.67;8.67;;;;;9.42;74.64;102322.56;5088368;27;45275;-74
2023/01/03 06:23:53;;;;;;;;;8.00;6.00;;;;;9.39;74.36;102335.16;5096150;27;45522;-74
2023/01/03 06:26:22;;;;;;;;;7.33;7.00;;;;;8.70;74.28;102214.84;5084541;27;45320;-74
2023/01/03 06:28:48;;;;;;;;;8.00;8.00;;;;;8.05;74.70;102107.59;5089202;27;45233;-75
2023/01/03 06:31:14;;;;;;;;;12.67;10.00;;;;;8.63;74.78;102208.22;5099200;27;45386;-73
2023/01/03 06:33:40;;;;;;;;;12.00;9.00;;;;;8.72;75.22;102241.25;5100913;27;45352;-75
2023/01/03 06:36:08;;;;;;;;;8.67;7.67;;;;;9.45;74.76;102359.53;5108433;27;45445;-76
2023/01/03 06:38:34;;;;;;;;;10.33;7.00;;;;;6.34;74.42;101853.38;5084908;27;45238;-74
2023/01/03 06:41:00;;;;;;;;;7.00;5.33;;;;;8.90;74.80;102292.31;5082342;27;45617;-74
2023/01/03 06:43:26;;;;;;;;;11.67;7.00;;;;;9.38;75.29;102368.81;5100694;27;45345;-72
2023/01/03 06:54:17;;;;;;;;;9.00;7.33;;;;;8.26;75.51;102212.25;5090318;27;45571;-75
2023/01/03 06:56:42;;;;;;;;;10.00;9.00;;;;;9.25;75.86;102377.66;5101211;27;45301;-74
2023/01/03 06:59:08;;;;;;;;;7.00;6.00;;;;;6.88;75.67;101978.78;5118663;27;45556;-73
2023/01/03 07:01:33;;;;;;;;;10.33;9.33;;;;;9.28;75.79;102377.47;5099721;27;51886;-74
2023/01/03 07:03:58;;;;;;;;;13.67;11.33;;;;;9.21;75.70;102355.78;5099250;27;45564;-74
2023/01/03 07:06:24;;;;;;;;;10.33;8.00;;;;;8.83;75.65;102303.28;5100406;27;45328;-75
2023/01/03 07:08:50;;;;;;;;;8.00;8.00;;;;;9.31;75.45;102387.88;5099278;27;45319;-74
2023/01/03 07:11:15;;;;;;;;;10.00;10.00;;;;;9.26;75.90;102379.38;5100506;27;46355;-77
2023/01/03 07:13:59;;;;;;;;;7.67;6.00;;;;;9.23;76.02;102385.72;5094256;27;45218;-72
2023/01/03 07:16:46;;;;;;;;;6.67;6.67;;;;;9.16;76.27;102384.38;5078220;28;45362;-74
2023/01/03 07:19:14;;;;;;;;;14.00;8.00;;;;;9.06;76.30;102365.53;5084327;27;45530;-79
2023/01/03 07:21:40;;;;;;;;;8.67;8.67;;;;;8.81;76.73;102342.31;5095989;27;45626;-78
2023/01/03 07:24:07;;;;;;;;;9.33;7.00;;;;;8.90;76.99;102356.81;5096931;27;45311;-75
2023/01/03 07:26:34;;;;;;;;;7.00;7.00;;;;;8.27;77.06;102250.19;5088122;27;45569;-74
2023/01/03 07:29:02;;;;;;;;;13.00;11.00;;;;;8.96;77.02;102375.00;5100154;27;45402;-74
2023/01/03 07:31:27;;;;;;;;;8.00;8.00;;;;;8.98;77.48;102396.13;5099684;27;46850;-76
2023/01/03 07:33:53;;;;;;;;;7.00;7.00;;;;;7.54;77.71;102155.63;5098658;27;45273;-75
2023/01/03 07:36:20;;;;;;;;;16.00;14.00;;;;;8.92;78.02;102397.34;5099887;27;45259;-73
2023/01/03 07:38:46;;;;;;;;;13.00;11.00;;;;;8.47;77.41;102305.53;5100533;27;45357;-75
2023/01/03 07:41:13;;;;;;;;;11.33;9.67;;;;;8.87;77.34;102374.72;5113873;27;47732;-73
2023/01/03 07:43:42;;;;;;;;;10.67;8.00;;;;;9.03;77.47;102410.81;5089240;27;45416;-73
2023/01/03 07:46:13;;;;;;;;;12.33;9.33;;;;;8.82;78.07;102369.69;5100658;27;45263;-75
2023/01/03 07:48:39;;;;;;;;;11.67;8.67;;;;;8.81;78.08;102376.81;5090601;27;45319;-74
2023/01/03 07:51:06;;;;;;;;;10.00;8.33;;;;;9.04;77.79;102409.03;5093099;27;47533;-74
2023/01/03 07:53:32;;;;;;;;;7.33;7.33;;;;;9.00;77.87;102410.13;5091317;27;45553;-76
2023/01/03 07:56:03;;;;;;;;;10.33;6.67;;;;;8.89;78.28;102392.22;5084815;27;45354;-74
2023/01/03 07:58:29;;;;;;;;;13.00;9.00;;;;;8.83;78.41;102398.78;5079841;27;45366;-75
2023/01/03 08:00:55;;;;;;;;;8.00;8.00;;;;;7.80;78.50;102230.00;5094826;27;46106;-76
2023/01/03 08:03:20;;;;;;;;;9.00;7.67;;;;;8.69;78.16;102393.44;5079041;27;52803;-74
2023/01/03 08:05:45;;;;;;;;;7.33;6.67;;;;;8.73;78.20;102383.50;5090580;27;45651;-75
2023/01/03 08:08:11;;;;;;;;;7.00;7.00;;;;;8.98;77.89;102422.63;5079613;27;45612;-76
2023/01/03 08:13:21;;;;;;;;;10.67;7.67;;;;;8.34;77.93;102317.78;5104019;27;45214;-76
2023/01/03 08:15:47;;;;;;;;;10.67;9.33;;;;;9.05;78.19;102439.91;5086297;27;45233;-74
2023/01/03 08:18:14;;;;;;;;;8.67;8.67;;;;;9.03;77.80;102429.41;5074721;28;45477;-75
2023/01/03 08:20:40;;;;;;;;;29.67;27.00;;;;;8.97;78.10;102415.63;5063143;28;45834;-74
2023/01/03 08:23:05;;;;;;;;;14.33;13.33;;;;;9.20;77.96;102444.28;5058958;28;45562;-76
2023/01/03 08:25:31;;;;;;;;;14.00;14.00;;;;;8.39;77.78;102308.63;5040711;28;45607;-76
2023/01/03 08:27:58;;;;;;;;;16.33;15.00;;;;;9.19;77.56;102447.03;5058183;28;45249;-77
2023/01/03 08:30:23;;;;;;;;;26.00;20.00;;;;;8.90;77.95;102401.91;5043043;28;48053;-75
2023/01/03 08:32:49;;;;;;;;;17.33;16.33;;;;;9.13;77.40;102442.94;5078513;28;45310;-74
2023/01/03 08:35:15;;;;;;;;;16.00;13.67;;;;;9.09;77.84;102436.97;5069249;28;45337;-75
2023/01/03 08:37:46;;;;;;;;;19.33;17.00;;;;;9.29;77.23;102458.78;5063173;28;45487;-76
2023/01/03 08:40:14;;;;;;;;;13.00;13.00;;;;;9.29;77.42;102451.69;5064572;28;46800;-75
2023/01/03 08:42:40;;;;;;;;;18.00;16.00;;;;;9.32;77.24;102464.75;5060737;28;45377;-78
2023/01/03 08:45:12;;;;;;;;;15.67;13.00;;;;;9.38;76.90;102458.22;5073354;28;45322;-77
2023/01/03 08:47:39;;;;;;;;;13.67;13.67;;;;;8.62;76.89;102330.28;5078666;28;45597;-74
2023/01/03 08:50:04;;;;;;;;;12.33;12.33;;;;;9.21;76.38;102422.13;5059474;28;46659;-76
2023/01/03 08:52:30;;;;;;;;;14.00;11.67;;;;;9.37;76.28;102441.44;5073374;28;45463;-76
2023/01/03 08:54:55;;;;;;;;;9.33;8.67;;;;;9.26;76.33;102428.00;5054119;28;45596;-75
2023/01/03 08:57:21;;;;;;;;;13.67;12.00;;;;;9.36;75.89;102455.66;5064265;28;48231;-75
2023/01/03 08:59:46;;;;;;;;;13.00;12.00;;;;;9.39;76.38;102452.81;5068318;28;46569;-76
2023/01/03 09:02:11;;;;;;;;;15.33;13.67;;;;;9.38;76.04;102459.06;5042698;28;45546;-75
2023/01/03 09:04:37;;;;;;;;;17.00;14.67;;;;;9.40;75.61;102465.13;5069788;28;45652;-72
2023/01/03 09:07:02;;;;;;;;;14.33;14.00;;;;;9.25;75.59;102422.78;5057064;28;45375;-77
2023/01/03 09:09:27;;;;;;;;;13.67;12.33;;;;;9.50;75.42;102446.00;5058980;28;46333;-76
2023/01/03 09:11:53;;;;;;;;;10.67;8.00;;;;;9.01;74.93;102348.16;5066320;28;45265;-74
2023/01/03 09:14:18;;;;;;;;;10.33;9.67;;;;;9.04;74.42;102350.66;5074530;28;52117;-75
2023/01/03 09:16:43;;;;;;;;;14.00;13.00;;;;;9.42;74.42;102410.19;5056554;28;45656;-76
2023/01/03 09:19:09;;;;;;;;;14.00;11.33;;;;;9.65;73.80;102431.78;5075949;28;46098;-76
2023/01/03 09:21:34;;;;;;;;;15.00;12.67;;;;;9.63;73.94;102447.81;5076877;28;45263;-75
2023/01/03 09:24:00;;;;;;;;;14.00;13.67;;;;;8.88;73.89;102326.03;5078363;28;45471;-76
2023/01/03 09:26:25;;;;;;;;;13.33;12.00;;;;;9.86;73.92;102477.38;5078097;28;45195;-74
2023/01/03 09:28:51;;;;;;;;;10.67;9.33;;;;;9.75;73.44;102478.88;5077782;28;45523;-77
2023/01/03 09:31:16;;;;;;;;;15.67;12.33;;;;;9.66;74.19;102473.31;5077681;28;45561;-77
2023/01/03 09:33:41;;;;;;;;;14.67;11.00;;;;;9.72;73.71;102473.78;5058048;28;45385;-76
2023/01/03 09:36:07;;;;;;;;;14.67;9.00;;;;;9.50;73.74;102440.69;5040671;28;45359;-77
2023/01/03 09:38:32;;;;;;;;;14.33;12.33;;;;;9.68;73.87;102474.91;5071493;28;45688;-77
2023/01/03 09:41:07;;;;;;;;;10.00;9.00;;;;;9.74;73.74;102477.19;5059924;28;45438;-76
2023/01/03 09:43:43;;;;;;;;;8.33;8.33;;;;;9.80;73.37;102486.56;5039349;28;45410;-75
2023/01/03 09:46:15;;;;;;;;;11.00;11.00;;;;;9.40;73.18;102422.66;5057768;28;45495;-76
2023/01/03 09:48:41;;;;;;;;;13.67;13.67;;;;;9.55;73.65;102457.19;5057135;28;46460;-78
2023/01/03 10:05:41;;;;;;;;;14.67;11.00;;;;;9.03;73.53;102347.16;5071568;28;45262;-75
2023/01/03 10:08:20;;;;;;;;;21.33;19.33;;;;;9.96;73.25;102487.31;5057992;28;45503;-77
2023/01/03 10:11:08;;;;;;;;;16.00;13.67;;;;;9.26;73.35;102377.56;5065618;28;46046;-76
2023/01/03 10:13:46;;;;;;;;;23.67;20.67;;;;;9.99;73.26;102491.56;5058898;28;45788;-77
2023/01/03 10:16:22;;;;;;;;;20.33;18.33;;;;;9.80;73.36;102461.81;5075079;27;45589;-75
2023/01/03 10:19:00;;;;;;;;;15.00;12.67;;;;;9.97;73.30;102502.28;5075893;28;45399;-78
2023/01/03 10:22:07;;;;;;;;;12.67;11.67;;;;;9.98;72.59;102496.03;5093820;27;46864;-76
2023/01/03 10:24:42;;;;;;;;;19.00;14.67;;;;;10.01;73.03;102501.19;5091628;27;45356;-77
2023/01/03 10:27:19;;;;;;;;;12.33;10.67;;;;;10.13;72.44;102511.94;5076516;27;45273;-75
2023/01/03 10:29:48;;;;;;;;;57.75;45.75;;;;;9.89;71.95;102469.19;5085180;27;45569;-76
2023/01/03 10:32:49;;;;;;;;;8.33;8.33;;;;;9.79;72.38;102431.72;5096057;27;48425;-76
2023/01/03 10:35:21;;;;;;;;;6.00;4.33;;;;;10.09;71.55;102494.50;5096388;27;46569;-75
2023/01/03 10:37:47;;;;;;;;;6.33;5.67;;;;;9.89;71.88;102464.75;5095947;27;45442;-77
2023/01/03 10:40:13;;;;;;;;;4.33;3.33;;;;;10.01;71.49;102479.91;5077847;27;45480;-74
2023/01/03 10:42:41;;;;;;;;;6.00;6.00;;;;;9.68;71.55;102407.66;5078877;27;45275;-76
2023/01/03 10:45:16;;;;;;;;;9.00;7.33;;;;;10.33;71.58;102514.22;5077775;28;45285;-76
2023/01/03 10:47:42;;;;;;;;;12.33;12.33;;;;;10.34;71.81;102518.59;5081283;27;45287;-76
2023/01/03 10:50:18;;;;;;;;;15.00;12.67;;;;;10.04;71.77;102463.78;5087043;27;45503;-75
2023/01/03 10:52:43;;;;;;;;;9.33;9.33;;;;;10.23;71.80;102494.50;5097781;27;45793;-75
2023/01/03 10:55:15;;;;;;;;;16.67;15.33;;;;;9.89;71.47;102427.53;5080728;27;45344;-75
2023/01/03 10:57:47;;;;;;;;;11.00;11.00;;;;;10.21;71.98;102475.13;5083841;27;45578;-77
2023/01/03 11:00:35;;;;;;;;;25.33;20.67;;;;;10.40;71.71;102510.19;5099435;27;45487;-76
2023/01/03 11:03:17;;;;;;;;;11.00;11.00;;;;;10.46;71.75;102495.69;5096889;27;45332;-75
2023/01/03 11:06:05;;;;;;;;;13.33;13.00;;;;;10.45;71.60;102500.13;5108875;27;45400;-77
2023/01/03 11:08:36;;;;;;;;;18.00;12.33;;;;;10.50;71.03;102498.03;5088253;27;45261;-77
2023/01/03 11:11:02;;;;;;;;;14.33;9.67;;;;;9.59;71.31;102347.16;5096177;27;45655;-76
2023/01/03 11:13:39;;;;;;;;;11.00;11.00;;;;;10.46;70.88;102501.84;5091615;27;46330;-80
2023/01/03 11:16:18;;;;;;;;;10.67;10.67;;;;;10.50;71.32;102506.00;5090283;27;45277;-76
2023/01/03 11:18:59;;;;;;;;;10.67;9.33;;;;;9.90;70.68;102392.06;5080202;27;45427;-77
2023/01/03 11:21:34;;;;;;;;;11.00;9.67;;;;;10.50;71.64;102499.84;5078926;27;45574;-75
2023/01/03 11:24:12;;;;;;;;;10.00;10.00;;;;;10.52;71.07;102495.25;5079195;28;48040;-75
2023/01/03 11:27:29;;;;;;;;;12.67;11.00;;;;;10.50;70.80;102482.06;5083294;27;45310;-76
2023/01/03 11:30:16;;;;;;;;;12.33;9.00;;;;;10.51;70.95;102481.13;5075956;28;45601;-78
2023/01/03 11:32:57;;;;;;;;;11.00;10.00;;;;;10.51;70.93;102480.25;5081509;27;45473;-76
2023/01/03 11:35:57;;;;;;;;;10.00;10.00;;;;;10.48;71.23;102457.38;5080165;28;45526;-78
2023/01/03 11:38:45;;;;;;;;;15.00;8.33;;;;;10.59;71.31;102470.81;4984846;28;45272;-76
2023/01/03 11:41:38;;;;;;;;;11.33;10.33;;;;;10.57;70.95;102469.22;5076217;27;45521;-77
2023/01/03 11:44:22;;;;;;;;;10.33;9.00;;;;;10.61;70.78;102458.28;5079794;28;45511;-78
2023/01/03 11:47:09;;;;;;;;;25.00;22.00;;;;;10.66;71.16;102474.78;5079029;28;48451;-78
2023/01/03 11:49:56;;;;;;;;;9.33;8.00;;;;;10.73;70.91;102471.69;5080408;28;45408;-77
2023/01/03 11:52:46;;;;;;;;;10.00;8.67;;;;;10.60;70.72;102455.69;5078427;28;45544;-79
2023/01/03 11:55:23;;;;;;;;;11.67;11.67;;;;;10.67;70.69;102470.31;5078774;28;45253;-76
2023/01/03 11:58:07;;;;;;;;;9.67;8.67;;;;;10.52;70.51;102448.25;5078845;27;45296;-77
2023/01/03 12:00:45;;;;;;;;;8.00;8.00;;;;;10.43;70.88;102422.28;5082028;28;45221;-78
2023/01/03 12:03:25;;;;;;;;;10.00;9.00;;;;;10.32;70.86;102387.56;5081506;27;45495;-78
2023/01/03 12:06:03;;;;;;;;;7.67;7.67;;;;;10.65;70.86;102448.28;5080763;27;45346;-75
2023/01/03 12:08:28;;;;;;;;;9.33;9.00;;;;;10.80;70.60;102454.38;5082376;27;45724;-77
2023/01/03 12:11:02;;;;;;;;;10.67;9.00;;;;;10.92;70.03;102448.22;5081261;28;46566;-76
2023/01/03 12:13:50;;;;;;;;;7.00;7.00;;;;;10.39;69.76;102340.13;5079225;28;45262;-77
2023/01/03 12:16:28;;;;;;;;;14.33;10.00;;;;;11.07;69.98;102433.88;5077981;28;45580;-79
2023/01/03 12:19:14;;;;;;;;;10.33;10.33;;;;;11.04;69.81;102430.56;5079052;27;45546;-76
2023/01/03 12:21:46;;;;;;;;;24.00;21.67;;;;;10.79;70.11;102391.47;5079068;28;45547;-77
2023/01/03 12:24:28;;;;;;;;;18.00;18.00;;;;;10.25;69.67;102296.75;5077721;28;45490;-78
2023/01/03 12:27:02;;;;;;;;;17.00;12.00;;;;;10.19;70.14;102282.97;5079734;27;45409;-77
2023/01/03 12:29:44;;;;;;;;;8.33;5.33;;;;;10.36;70.18;102309.31;5080142;27;46684;-76
2023/01/03 12:32:17;;;;;;;;;8.00;8.00;;;;;11.05;70.26;102429.63;5077887;28;46326;-76
2023/01/03 12:34:42;;;;;;;;;11.00;9.33;;;;;11.04;70.32;102433.22;5079338;27;45335;-76
2023/01/03 12:37:16;;;;;;;;;6.00;5.67;;;;;10.90;70.41;102427.03;5079613;28;45370;-79
2023/01/03 12:39:47;;;;;;;;;4.00;4.00;;;;;10.21;70.04;102342.22;5079546;27;45847;-78
2023/01/03 12:42:39;;;;;;;;;5.67;5.67;;;;;10.83;71.07;102427.56;5078766;28;45504;-76
2023/01/03 12:45:10;;;;;;;;;6.00;5.00;;;;;10.83;71.13;102423.09;5077424;28;45692;-77